Huvudsida
METAR-TAF:

METAR-TAF

Flygplatser :

Jakutsk, Ryssland

latitud: 62-01N, longitud: 129-43E, höjd: 103 m

Aktuellt väderrapport

Denna rapport gjordes för 38 minuter sedan, klockan 00:00 UTC
Vind 2 kt från väst/nordväst
Temperatur -40°C
Fuktighet 58%
Tryck 1034 hPa
Sikt: 0350 m
dimma

METAR: UEEE 100000Z 29001MPS 0400 0350NE R23L/0600N FG VV003 M40/M45 Q1034 R23L/490155 NOSIG RMK QBB090 QFE767

Tid: 09:38 (00:38 UTC)

Väderprognos

Denna rapport gjordes för 1 timme och 38 minuter sedan, klockan 23:00 UTC
Prognos gäller från 10 kl. 00 UTC till 11 kl. 06 UTC
Vind 2 kt varierande vindriktning
Sikt: 0300 m
på en höjd av 300 ft
dimma
Temporärt
från 10 kl. 00 UTC till 10 kl. 06 UTC
Sikt: 0700 m
dimma
Temporärt
från 10 kl. 06 UTC till 10 kl. 12 UTC
Sikt: 2100 m
fuktdis

TAF: UEEE 092300Z 1000/1106 VRB01MPS 0300 FG VV003 TXM37/1006Z TNM41/1000Z TEMPO 1000/1006 0700 FG NSC TEMPO 1006/1012 2100 BR NSC

Aktuella väderrapporter och prognoser från 4000 flygplatser (METAR- och TAF-rapporter).

De tillgängliga stationerna syns som gula och röda prickar på kartan.

För musen över prickarna för att se namnen på stationerna.

Klicka sedan för att få väderrapporter och prognoser.

För att ändra kartan: Klicka på de gröna knapparna med ett svart kors på för att zooma in; den gröna knappen med ett streck på för att zooma ut; eller på de gröna pilarna för angränsande kartor.


METAR-TAF: